createdAt,value
2018-06-16T00:02:03.868Z,79.80
2018-06-16T00:04:31.703Z,79.80
2018-06-16T00:06:59.638Z,79.80
2018-06-16T00:09:27.385Z,79.80
2018-06-16T00:11:55.208Z,80.00
2018-06-16T00:14:22.967Z,79.90
2018-06-16T00:16:50.780Z,80.10
2018-06-16T00:19:18.629Z,78.60
2018-06-16T00:21:46.321Z,77.70
2018-06-16T00:24:14.055Z,77.70
2018-06-16T00:26:55.652Z,78.00
2018-06-16T00:29:29.892Z,77.90
2018-06-16T00:31:57.862Z,78.00
2018-06-16T00:34:25.738Z,77.80
2018-06-16T00:36:53.796Z,77.90
2018-06-16T00:39:22.064Z,78.40
2018-06-16T00:41:49.886Z,78.80
2018-06-16T00:44:22.877Z,79.00
2018-06-16T00:46:50.651Z,78.90
2018-06-16T00:49:18.430Z,79.00
2018-06-16T00:51:46.206Z,78.90
2018-06-16T00:54:55.729Z,79.00
2018-06-16T00:57:34.648Z,79.30
2018-06-16T01:00:02.603Z,79.70
2018-06-16T01:02:30.443Z,79.80
2018-06-16T01:04:58.266Z,80.10
2018-06-16T01:07:26.230Z,80.10
2018-06-16T01:09:54.197Z,79.70
2018-06-16T01:12:22.064Z,79.80
2018-06-16T01:14:49.910Z,79.50
2018-06-16T01:17:17.840Z,80.20
2018-06-16T01:19:45.610Z,79.40
2018-06-16T01:22:13.464Z,79.40
2018-06-16T01:24:41.301Z,79.30
2018-06-16T01:27:09.100Z,80.00
2018-06-16T01:29:36.956Z,79.10
2018-06-16T01:32:04.798Z,79.00
2018-06-16T01:34:32.593Z,79.00
2018-06-16T01:37:00.412Z,79.30
2018-06-16T01:39:28.459Z,79.60
2018-06-16T01:41:56.318Z,79.60
2018-06-16T01:44:24.381Z,79.80
2018-06-16T01:49:26.177Z,79.80
2018-06-16T01:51:53.890Z,79.70
2018-06-16T01:54:21.737Z,79.50
2018-06-16T01:56:50.282Z,79.60
2018-06-16T01:59:18.059Z,80.50
2018-06-16T02:01:46.277Z,80.00
2018-06-16T02:04:14.265Z,80.00
2018-06-16T02:06:42.178Z,79.70
2018-06-16T02:09:11.557Z,80.00
2018-06-16T02:11:39.542Z,79.00
2018-06-16T02:14:07.936Z,79.00
2018-06-16T02:16:35.714Z,79.40
2018-06-16T02:19:03.598Z,79.10
2018-06-16T02:21:31.498Z,79.40
2018-06-16T02:23:59.297Z,79.10
2018-06-16T02:26:27.087Z,80.10
2018-06-16T02:28:54.976Z,79.30
2018-06-16T02:31:22.864Z,79.30
2018-06-16T02:33:50.695Z,79.60
2018-06-16T02:36:18.429Z,79.90
2018-06-16T02:38:46.135Z,79.60
2018-06-16T02:43:41.646Z,79.80
2018-06-16T02:46:09.505Z,79.70
2018-06-16T02:48:37.338Z,79.60
2018-06-16T02:51:05.142Z,79.60
2018-06-16T02:53:32.916Z,79.60
2018-06-16T02:56:00.967Z,79.90
2018-06-16T02:58:28.775Z,80.00
2018-06-16T03:03:24.553Z,80.20
2018-06-16T03:05:52.172Z,80.30
2018-06-16T03:08:20.313Z,80.30
2018-06-16T03:10:48.238Z,80.10
2018-06-16T03:13:16.082Z,79.70
2018-06-16T03:15:43.830Z,79.70
2018-06-16T03:18:11.655Z,79.90
2018-06-16T03:20:39.529Z,80.00
2018-06-16T03:23:07.385Z,80.30
2018-06-16T03:25:35.182Z,80.30
2018-06-16T03:28:03.385Z,80.30
2018-06-16T03:30:31.189Z,80.30
2018-06-16T03:32:59.154Z,80.30
2018-06-16T03:35:27.025Z,80.20
2018-06-16T03:37:54.897Z,80.30
2018-06-16T03:40:22.769Z,80.10
2018-06-16T03:42:51.282Z,79.90
2018-06-16T03:45:19.240Z,79.90
2018-06-16T03:47:47.331Z,79.80
2018-06-16T03:50:15.226Z,80.00
2018-06-16T03:52:43.061Z,80.30
2018-06-16T03:55:23.862Z,80.30
2018-06-16T03:57:51.760Z,80.50
2018-06-16T04:00:19.709Z,80.50
2018-06-16T04:02:47.496Z,80.70
2018-06-16T04:05:15.293Z,80.70
2018-06-16T04:07:42.991Z,80.60
2018-06-16T04:10:10.762Z,80.60
2018-06-16T04:12:38.725Z,80.60
2018-06-16T04:15:06.721Z,80.70
2018-06-16T04:17:34.533Z,80.60
2018-06-16T04:20:02.312Z,80.70
2018-06-16T04:22:30.929Z,80.60
2018-06-16T04:24:58.809Z,80.70
2018-06-16T04:27:26.879Z,80.50
2018-06-16T04:29:54.697Z,80.50
2018-06-16T04:32:23.134Z,80.30
2018-06-16T04:34:50.892Z,80.30
2018-06-16T04:37:18.763Z,80.30
2018-06-16T04:39:46.691Z,80.20
2018-06-16T04:42:14.576Z,80.20
2018-06-16T04:44:42.372Z,80.10
2018-06-16T04:47:10.319Z,80.10
2018-06-16T04:49:40.281Z,80.30
2018-06-16T04:52:08.078Z,80.30
2018-06-16T04:54:35.963Z,80.10
2018-06-16T04:57:03.793Z,80.10
2018-06-16T04:59:31.645Z,80.20
2018-06-16T05:01:59.514Z,80.10
2018-06-16T05:04:27.352Z,79.80
2018-06-16T05:06:55.177Z,79.80
2018-06-16T05:09:23.490Z,79.80
2018-06-16T05:11:51.260Z,79.80
2018-06-16T05:16:47.210Z,79.60
2018-06-16T05:19:14.934Z,79.60
2018-06-16T05:21:42.860Z,79.50
2018-06-16T05:24:10.717Z,79.60
2018-06-16T05:26:38.670Z,79.60
2018-06-16T05:29:06.511Z,79.50
2018-06-16T05:31:34.384Z,79.30
2018-06-16T05:34:02.184Z,78.90
2018-06-16T05:36:29.953Z,78.60
2018-06-16T05:38:57.857Z,78.60
2018-06-16T05:41:25.848Z,78.10
2018-06-16T05:43:53.583Z,77.30
2018-06-16T05:46:21.321Z,77.30
2018-06-16T05:48:49.300Z,77.00
2018-06-16T05:51:17.172Z,76.70
2018-06-16T05:53:45.011Z,76.20
2018-06-16T05:56:12.802Z,76.30
2018-06-16T05:58:40.720Z,76.20
2018-06-16T06:01:08.514Z,76.30
2018-06-16T06:03:36.284Z,76.90
2018-06-16T06:06:04.122Z,76.60
2018-06-16T06:08:31.963Z,76.90
2018-06-16T06:10:59.829Z,77.30
2018-06-16T06:13:27.524Z,77.30
2018-06-16T06:15:55.265Z,77.30
2018-06-16T06:18:23.978Z,77.60
2018-06-16T06:20:51.863Z,77.60
2018-06-16T06:23:20.038Z,77.60
2018-06-16T06:25:47.870Z,77.40
2018-06-16T06:28:15.574Z,77.60
2018-06-16T06:30:43.565Z,77.50
2018-06-16T06:33:11.289Z,77.00
2018-06-16T06:35:38.995Z,76.70
2018-06-16T06:38:06.675Z,76.50
2018-06-16T06:40:34.807Z,76.50
2018-06-16T06:43:02.680Z,76.80
2018-06-16T06:45:30.482Z,76.60
2018-06-16T06:47:58.455Z,76.70
2018-06-16T06:50:26.221Z,76.70
2018-06-16T06:52:54.041Z,76.30
2018-06-16T06:55:21.752Z,75.70
2018-06-16T06:57:49.586Z,75.80
2018-06-16T07:00:17.382Z,75.70
2018-06-16T07:02:52.134Z,75.50
2018-06-16T07:05:19.868Z,74.90
2018-06-16T07:07:47.540Z,74.30
2018-06-16T07:10:15.473Z,74.20
2018-06-16T07:12:43.241Z,74.70
2018-06-16T07:15:10.958Z,74.30
2018-06-16T07:17:38.703Z,74.10
2018-06-16T07:20:06.508Z,73.80
2018-06-16T07:22:34.164Z,73.60
2018-06-16T07:25:02.062Z,73.80
2018-06-16T07:27:30.018Z,73.30
2018-06-16T07:29:58.197Z,73.00
2018-06-16T07:32:26.146Z,72.00
2018-06-16T07:34:53.970Z,72.00
2018-06-16T07:37:21.671Z,71.50
2018-06-16T07:39:49.487Z,71.70
2018-06-16T07:42:17.240Z,70.30
2018-06-16T07:44:47.890Z,69.50
2018-06-16T07:47:16.064Z,69.40
2018-06-16T07:49:43.916Z,68.50
2018-06-16T07:52:11.753Z,68.50
2018-06-16T07:54:39.578Z,68.00
2018-06-16T07:57:07.607Z,67.70
2018-06-16T07:59:35.573Z,66.70
2018-06-16T08:02:03.551Z,66.80
2018-06-16T08:06:58.955Z,66.40
2018-06-16T08:09:26.881Z,66.50
2018-06-16T08:11:55.078Z,65.80
2018-06-16T08:14:22.916Z,65.40
2018-06-16T08:16:50.728Z,66.20
2018-06-16T08:19:18.520Z,65.50
2018-06-16T08:21:46.366Z,65.00
2018-06-16T08:24:14.240Z,64.90
2018-06-16T08:26:45.510Z,64.80
2018-06-16T08:29:13.271Z,64.60
2018-06-16T08:31:41.145Z,64.50
2018-06-16T08:34:08.980Z,64.60
2018-06-16T08:36:36.881Z,64.00
2018-06-16T08:39:07.263Z,62.70
2018-06-16T08:41:35.066Z,62.00
2018-06-16T08:44:02.962Z,61.70
2018-06-16T08:46:31.930Z,61.50
2018-06-16T08:49:00.409Z,60.20
2018-06-16T08:51:28.606Z,60.20
2018-06-16T08:53:58.475Z,60.50
2018-06-16T08:56:26.313Z,60.40
2018-06-16T08:58:54.240Z,59.00
2018-06-16T09:01:22.069Z,57.50
2018-06-16T09:03:49.884Z,58.30
2018-06-16T09:06:17.669Z,56.90
2018-06-16T09:08:45.701Z,57.20
2018-06-16T09:11:13.586Z,57.80
2018-06-16T09:13:41.496Z,58.80
2018-06-16T09:16:09.410Z,56.40
2018-06-16T09:18:37.306Z,56.60
2018-06-16T09:21:05.020Z,57.00
2018-06-16T09:23:32.678Z,55.90
2018-06-16T09:26:00.454Z,56.20
2018-06-16T09:28:28.528Z,55.60
2018-06-16T09:30:56.324Z,55.20
2018-06-16T09:33:24.228Z,55.10
2018-06-16T09:35:52.029Z,54.80
2018-06-16T09:38:19.945Z,55.80
2018-06-16T09:40:47.884Z,54.60
2018-06-16T09:43:15.730Z,55.40
2018-06-16T09:45:43.635Z,55.50
2018-06-16T09:48:11.400Z,54.90
2018-06-16T09:50:39.214Z,54.90
2018-06-16T09:53:07.265Z,54.80
2018-06-16T09:55:35.072Z,54.90
2018-06-16T09:58:03.003Z,54.80
2018-06-16T10:00:36.461Z,53.60
2018-06-16T10:03:04.678Z,52.90
2018-06-16T10:05:32.433Z,52.70
2018-06-16T10:08:00.375Z,51.70
2018-06-16T10:10:31.853Z,52.30
2018-06-16T10:12:59.654Z,51.70
2018-06-16T10:15:27.818Z,50.40
2018-06-16T10:17:55.483Z,48.40
2018-06-16T10:20:23.438Z,48.10
2018-06-16T10:22:51.336Z,49.30
2018-06-16T10:25:19.214Z,48.80
2018-06-16T10:27:47.141Z,48.90
2018-06-16T10:30:14.890Z,48.90
2018-06-16T10:32:42.860Z,47.30
2018-06-16T10:35:11.343Z,48.20
2018-06-16T10:37:39.153Z,44.60
2018-06-16T10:40:07.149Z,44.50
2018-06-16T10:42:35.164Z,43.30
2018-06-16T10:45:04.473Z,39.60
2018-06-16T10:47:32.193Z,41.20
2018-06-16T10:52:27.668Z,36.80
2018-06-16T10:54:55.862Z,39.00
2018-06-16T10:57:23.944Z,39.80
2018-06-16T10:59:51.866Z,38.90
2018-06-16T11:02:19.732Z,40.60
2018-06-16T11:04:47.659Z,42.10
2018-06-16T11:07:15.486Z,41.70
2018-06-16T11:09:43.355Z,43.00
2018-06-16T11:12:11.396Z,43.00
2018-06-16T11:14:39.194Z,43.40
2018-06-16T11:17:07.057Z,42.30
2018-06-16T11:19:35.025Z,41.70
2018-06-16T11:22:02.841Z,40.60
2018-06-16T11:24:30.733Z,40.60
2018-06-16T11:26:58.643Z,41.70
2018-06-16T11:29:26.491Z,43.00
2018-06-16T11:31:55.657Z,40.30
2018-06-16T11:34:23.605Z,40.50
2018-06-16T11:36:51.425Z,40.80
2018-06-16T11:39:19.252Z,41.30
2018-06-16T11:41:47.074Z,40.10
2018-06-16T11:44:14.817Z,39.00
2018-06-16T11:46:42.571Z,40.10
2018-06-16T11:49:10.349Z,38.50
2018-06-16T11:51:38.177Z,40.90
2018-06-16T11:54:06.110Z,39.80
2018-06-16T11:56:33.871Z,41.90
2018-06-16T11:59:01.782Z,42.50
2018-06-16T12:01:29.554Z,44.40
2018-06-16T12:03:57.372Z,43.00
2018-06-16T12:06:25.241Z,45.50
2018-06-16T12:11:20.662Z,43.10
2018-06-16T12:13:48.492Z,44.60
2018-06-16T12:16:16.379Z,44.10
2018-06-16T12:18:44.304Z,44.80
2018-06-16T12:21:12.145Z,45.60
2018-06-16T12:23:40.027Z,45.10
2018-06-16T12:26:07.832Z,46.20
2018-06-16T12:28:35.709Z,45.20
2018-06-16T12:31:03.461Z,44.60
2018-06-16T12:33:31.257Z,45.50
2018-06-16T12:35:58.964Z,44.60
2018-06-16T12:38:26.968Z,45.90
2018-06-16T12:40:54.993Z,45.30
2018-06-16T12:43:22.909Z,43.00
2018-06-16T12:45:50.670Z,43.60
2018-06-16T12:48:18.465Z,41.40
2018-06-16T12:50:49.418Z,41.50
2018-06-16T12:53:17.137Z,42.20
2018-06-16T12:58:12.546Z,41.20
2018-06-16T13:00:40.445Z,39.70
2018-06-16T13:03:08.332Z,39.50
2018-06-16T13:05:36.058Z,39.80
2018-06-16T13:08:03.859Z,39.50
2018-06-16T13:10:31.730Z,40.50
2018-06-16T13:12:59.656Z,40.40
2018-06-16T13:17:55.130Z,40.10
2018-06-16T13:20:23.481Z,40.80
2018-06-16T13:22:51.417Z,39.80
2018-06-16T13:25:19.288Z,39.60
2018-06-16T13:27:47.066Z,39.20
2018-06-16T13:30:14.877Z,39.00
2018-06-16T13:32:42.679Z,39.40
2018-06-16T13:35:10.397Z,38.20
2018-06-16T13:37:38.298Z,38.50
2018-06-16T13:40:06.481Z,38.30
2018-06-16T13:42:34.498Z,37.70
2018-06-16T13:45:02.399Z,39.20
2018-06-16T13:47:30.276Z,39.10
2018-06-16T13:49:58.203Z,38.00
2018-06-16T13:52:26.353Z,39.30
2018-06-16T13:54:54.870Z,39.00
2018-06-16T13:57:22.712Z,38.60
2018-06-16T13:59:50.562Z,39.20
2018-06-16T14:02:18.538Z,37.60
2018-06-16T14:04:46.553Z,38.00
2018-06-16T14:07:14.410Z,37.60
2018-06-16T14:09:42.242Z,39.00
2018-06-16T14:12:10.686Z,37.20
2018-06-16T14:14:38.475Z,36.80
2018-06-16T14:19:34.517Z,36.10
2018-06-16T14:22:02.349Z,37.20
2018-06-16T14:24:30.182Z,36.40
2018-06-16T14:26:58.293Z,36.00
2018-06-16T14:29:26.143Z,36.40
2018-06-16T14:31:54.017Z,36.10
2018-06-16T14:34:21.894Z,37.30
2018-06-16T14:36:49.757Z,35.60
2018-06-16T14:39:17.571Z,37.70
2018-06-16T14:41:45.479Z,38.60
2018-06-16T14:44:13.424Z,37.80
2018-06-16T14:46:41.238Z,36.30
2018-06-16T14:49:09.238Z,36.90
2018-06-16T14:51:37.053Z,36.90
2018-06-16T14:54:04.856Z,37.50
2018-06-16T14:56:32.767Z,37.90
2018-06-16T14:59:00.614Z,37.90
2018-06-16T15:01:29.904Z,38.40
2018-06-16T15:03:57.742Z,38.50
2018-06-16T15:06:25.602Z,38.00
2018-06-16T15:08:53.537Z,37.30
2018-06-16T15:11:32.623Z,36.80
2018-06-16T15:14:00.341Z,37.70
2018-06-16T15:16:28.259Z,39.70
2018-06-16T15:18:56.042Z,38.30
2018-06-16T15:21:24.008Z,37.60
2018-06-16T15:23:51.824Z,37.90
2018-06-16T15:26:20.737Z,38.00
2018-06-16T15:28:48.923Z,39.20
2018-06-16T15:31:17.901Z,38.50
2018-06-16T15:33:45.675Z,39.70
2018-06-16T15:36:13.472Z,39.10
2018-06-16T15:38:57.789Z,40.30
2018-06-16T15:41:27.126Z,40.40
2018-06-16T15:43:56.028Z,40.50
2018-06-16T15:46:24.315Z,40.70
2018-06-16T15:48:52.115Z,41.50
2018-06-16T15:51:20.242Z,40.10
2018-06-16T15:53:48.023Z,40.00
2018-06-16T15:56:16.226Z,40.70
2018-06-16T15:58:44.116Z,40.80
2018-06-16T16:01:11.833Z,40.70
2018-06-16T16:03:43.450Z,41.30
2018-06-16T16:06:11.746Z,42.20
2018-06-16T16:08:39.480Z,42.80
2018-06-16T16:11:07.426Z,43.30
2018-06-16T16:13:35.299Z,43.80
2018-06-16T16:16:03.110Z,43.10
2018-06-16T16:18:31.154Z,43.50
2018-06-16T16:20:59.103Z,43.30
2018-06-16T16:23:27.146Z,43.80
2018-06-16T16:25:58.393Z,43.00
2018-06-16T16:28:26.228Z,43.60
2018-06-16T16:30:54.124Z,43.90
2018-06-16T16:33:21.989Z,43.70
2018-06-16T16:35:49.781Z,44.00
2018-06-16T16:38:17.805Z,44.00
2018-06-16T16:40:51.049Z,43.20
2018-06-16T16:43:19.009Z,42.70
2018-06-16T16:45:46.917Z,44.60
2018-06-16T16:48:14.774Z,43.90
2018-06-16T16:50:42.749Z,43.80
2018-06-16T16:53:10.820Z,44.20
2018-06-16T16:55:40.477Z,43.40
2018-06-16T16:58:08.506Z,45.10
2018-06-16T17:00:36.301Z,45.90
2018-06-16T17:03:04.296Z,46.00
2018-06-16T17:08:06.678Z,45.80
2018-06-16T17:10:34.709Z,46.90
2018-06-16T17:13:03.132Z,46.50
2018-06-16T17:15:31.081Z,47.10
2018-06-16T17:17:59.049Z,47.60
2018-06-16T17:20:26.963Z,47.60
2018-06-16T17:22:56.472Z,46.70
2018-06-16T17:25:25.320Z,46.50
2018-06-16T17:27:53.827Z,46.60
2018-06-16T17:30:21.808Z,46.60
2018-06-16T17:32:49.792Z,46.00
2018-06-16T17:35:17.808Z,46.20
2018-06-16T17:37:45.646Z,46.90
2018-06-16T17:40:13.390Z,46.20
2018-06-16T17:42:41.236Z,46.90
2018-06-16T17:45:09.207Z,47.20
2018-06-16T17:47:38.257Z,48.00
2018-06-16T17:50:08.337Z,47.90
2018-06-16T17:52:36.132Z,47.80
2018-06-16T17:55:04.045Z,48.30
2018-06-16T17:57:31.953Z,47.60
2018-06-16T17:59:59.850Z,47.60
2018-06-16T18:02:27.840Z,47.60
2018-06-16T18:04:56.123Z,47.60
2018-06-16T18:07:23.924Z,47.60
2018-06-16T18:09:51.818Z,47.30
2018-06-16T18:12:19.865Z,47.50
2018-06-16T18:17:15.360Z,51.40
2018-06-16T18:19:43.194Z,52.70
2018-06-16T18:22:11.031Z,53.30
2018-06-16T18:24:38.811Z,52.90
2018-06-16T18:27:06.669Z,53.20
2018-06-16T18:29:37.524Z,53.60
2018-06-16T18:32:05.297Z,54.40
2018-06-16T18:34:33.069Z,53.80
2018-06-16T18:37:01.432Z,54.10
2018-06-16T18:41:57.182Z,53.50
2018-06-16T18:44:25.235Z,54.00
2018-06-16T18:46:53.519Z,53.60
2018-06-16T18:49:21.655Z,53.70
2018-06-16T18:51:49.806Z,53.30
2018-06-16T18:54:17.621Z,53.30
2018-06-16T18:56:45.529Z,53.20
2018-06-16T18:59:13.479Z,52.90
2018-06-16T19:01:41.353Z,53.10
2018-06-16T19:04:09.667Z,53.10
2018-06-16T19:06:37.440Z,53.30
2018-06-16T19:09:07.079Z,53.70
2018-06-16T19:11:34.985Z,54.50
2018-06-16T19:14:03.083Z,54.80
2018-06-16T19:16:30.842Z,54.70
2018-06-16T19:18:58.753Z,55.20
2018-06-16T19:21:26.930Z,54.70
2018-06-16T19:23:55.976Z,55.00
2018-06-16T19:26:24.844Z,56.10
2018-06-16T19:31:21.059Z,57.10
2018-06-16T19:33:49.024Z,56.30
2018-06-16T19:36:16.990Z,57.10
2018-06-16T19:38:44.883Z,56.10
2018-06-16T19:41:12.839Z,56.80
2018-06-16T19:43:41.066Z,56.20
2018-06-16T19:46:09.514Z,56.70
2018-06-16T19:48:40.928Z,57.90
2018-06-16T19:51:09.698Z,59.10
2018-06-16T19:56:05.787Z,58.30
2018-06-16T19:58:33.624Z,59.20
2018-06-16T20:01:01.712Z,60.20
2018-06-16T20:03:29.855Z,60.70
2018-06-16T20:05:57.973Z,59.60
2018-06-16T20:08:25.951Z,58.20
2018-06-16T20:10:54.045Z,58.20
2018-06-16T20:15:52.000Z,63.00
2018-06-16T20:18:19.943Z,63.40
2018-06-16T20:20:47.822Z,63.60
2018-06-16T20:23:15.539Z,64.60
2018-06-16T20:25:43.488Z,63.80
2018-06-16T20:28:11.832Z,63.90
2018-06-16T20:30:39.546Z,64.10
2018-06-16T20:33:08.413Z,63.90
2018-06-16T20:35:36.282Z,64.20
2018-06-16T20:38:04.957Z,64.10
2018-06-16T20:40:32.942Z,64.10
2018-06-16T20:43:00.891Z,64.10
2018-06-16T20:45:28.762Z,64.10
2018-06-16T20:47:56.863Z,64.70
2018-06-16T20:50:24.536Z,64.20
2018-06-16T20:52:54.598Z,63.50
2018-06-16T20:55:23.163Z,63.70
2018-06-16T20:57:50.994Z,65.30
2018-06-16T21:00:18.818Z,65.20
2018-06-16T21:02:46.755Z,64.50
2018-06-16T21:05:14.963Z,63.90
2018-06-16T21:07:42.788Z,63.90
2018-06-16T21:10:10.641Z,64.40
2018-06-16T21:12:39.590Z,65.20
2018-06-16T21:15:08.682Z,67.60
2018-06-16T21:17:36.737Z,67.70
2018-06-16T21:20:04.745Z,67.70
2018-06-16T21:22:32.654Z,67.30
2018-06-16T21:25:00.353Z,67.20
2018-06-16T21:27:28.226Z,66.80
2018-06-16T21:29:56.109Z,66.50
2018-06-16T21:32:23.996Z,66.30
2018-06-16T21:34:51.818Z,66.40
2018-06-16T21:37:19.652Z,66.50
2018-06-16T21:39:47.623Z,66.50
2018-06-16T21:42:15.486Z,66.60
2018-06-16T21:44:43.597Z,66.60
2018-06-16T21:47:11.518Z,65.70
2018-06-16T21:49:39.530Z,65.30
2018-06-16T21:52:07.587Z,65.30
2018-06-16T21:54:35.572Z,65.90
2018-06-16T21:57:08.456Z,67.30
2018-06-16T21:59:36.236Z,67.60
2018-06-16T22:02:04.507Z,68.10
2018-06-16T22:04:32.355Z,67.80
2018-06-16T22:07:00.518Z,67.70
2018-06-16T22:09:28.435Z,67.40
2018-06-16T22:11:56.516Z,67.50
2018-06-16T22:14:24.397Z,68.30
2018-06-16T22:16:52.222Z,68.40
2018-06-16T22:19:20.100Z,68.70
2018-06-16T22:21:48.854Z,67.90
2018-06-16T22:24:16.973Z,68.50
2018-06-16T22:26:44.827Z,68.70
2018-06-16T22:29:13.135Z,68.90
2018-06-16T22:31:41.030Z,68.90
2018-06-16T22:34:08.765Z,69.10
2018-06-16T22:36:36.856Z,69.20
2018-06-16T22:39:07.848Z,69.60
2018-06-16T22:41:35.775Z,69.70
2018-06-16T22:44:03.622Z,69.80
2018-06-16T22:46:31.321Z,69.80
2018-06-16T22:48:59.089Z,69.60
2018-06-16T22:51:27.167Z,69.60
2018-06-16T22:53:55.157Z,69.40
2018-06-16T22:56:23.663Z,69.40
2018-06-16T22:58:51.516Z,69.60
2018-06-16T23:01:19.457Z,69.70
2018-06-16T23:03:47.137Z,69.70
2018-06-16T23:06:15.001Z,70.00
2018-06-16T23:08:42.767Z,70.20
2018-06-16T23:11:10.671Z,70.30
2018-06-16T23:13:38.610Z,69.80
2018-06-16T23:16:06.396Z,69.80
2018-06-16T23:18:34.324Z,69.80
2018-06-16T23:21:02.253Z,70.00
2018-06-16T23:23:30.051Z,70.50
2018-06-16T23:25:57.805Z,71.30
2018-06-16T23:28:25.643Z,71.20
2018-06-16T23:30:53.460Z,71.80
2018-06-16T23:33:22.201Z,72.00
2018-06-16T23:35:50.033Z,72.40
2018-06-16T23:38:17.815Z,72.80
2018-06-16T23:40:45.512Z,73.20
2018-06-16T23:43:13.233Z,73.40
2018-06-16T23:45:41.102Z,73.70
2018-06-16T23:48:08.781Z,73.90
2018-06-16T23:50:36.715Z,74.00
2018-06-16T23:53:04.614Z,74.20
2018-06-16T23:55:32.291Z,74.50
2018-06-16T23:58:00.058Z,74.80
